Time,TemperatureF,DewpointF,PressureIn,WindDirection,WindDirectionDegrees,WindSpeedMPH,WindSpeedGustMPH,Humidity,HourlyPrecipIn,Conditions,Clouds,dailyrainin,SolarRadiationWatts/m^2,SoftwareType,DateUTC
2013-09-20 00:00:00,70.0,65.0,-100.00,SW,225,3.0,-999.0,83,0.01,,,-99.99,0.000000,,2013-09-20 04:00:00,
2013-09-20 00:44:00,70.0,65.0,-100.00,SW,225,3.0,-999.0,83,0.01,,,-99.99,0.000000,,2013-09-20 04:44:00,
2013-09-20 00:54:00,70.0,65.0,-100.00,SW,225,3.0,-999.0,83,0.01,,,-99.99,0.000000,,2013-09-20 04:54:00,
2013-09-20 01:00:00,69.0,65.0,-100.00,SSE,157,2.0,-999.0,88,-99.99,,,-99.99,0.000000,,2013-09-20 05:00:00,
2013-09-20 01:43:00,69.0,65.0,-100.00,SSE,157,2.0,-999.0,88,-99.99,,,-99.99,0.000000,,2013-09-20 05:43:00,
2013-09-20 01:53:00,69.0,65.0,-100.00,SSE,157,2.0,-999.0,88,-99.99,,,-99.99,0.000000,,2013-09-20 05:53:00,
2013-09-20 02:00:00,69.0,66.0,-100.00,South,180,4.0,-999.0,90,0.27,,,-99.99,0.000000,,2013-09-20 06:00:00,
2013-09-20 02:43:00,69.0,66.0,-100.00,South,180,4.0,-999.0,90,0.27,,,-99.99,0.000000,,2013-09-20 06:43:00,
2013-09-20 02:52:00,69.0,66.0,-100.00,South,180,4.0,-999.0,90,0.27,,,-99.99,0.000000,,2013-09-20 06:52:00,
2013-09-20 03:00:00,69.0,67.0,-100.00,SSE,157,4.0,-999.0,92,0.02,,,-99.99,0.000000,,2013-09-20 07:00:00,
2013-09-20 03:42:00,69.0,67.0,-100.00,SSE,157,4.0,-999.0,92,0.02,,,-99.99,0.000000,,2013-09-20 07:42:00,
2013-09-20 03:53:00,69.0,67.0,-100.00,SSE,157,4.0,-999.0,92,0.02,,,-99.99,0.000000,,2013-09-20 07:53:00,
2013-09-20 04:00:00,69.0,67.0,-100.00,South,180,3.0,-999.0,92,-99.99,,,-99.99,0.000000,,2013-09-20 08:00:00,
2013-09-20 04:42:00,69.0,67.0,-100.00,South,180,3.0,-999.0,92,-99.99,,,-99.99,0.000000,,2013-09-20 08:42:00,
2013-09-20 04:52:00,69.0,67.0,-100.00,South,180,3.0,-999.0,92,-99.99,,,-99.99,0.000000,,2013-09-20 08:52:00,
2013-09-20 05:00:00,69.0,67.0,-100.00,SSW,202,2.0,-999.0,93,-99.99,,,-99.99,0.000000,,2013-09-20 09:00:00,
2013-09-20 05:44:00,69.0,67.0,-100.00,SSW,202,2.0,-999.0,93,-99.99,,,-99.99,0.000000,,2013-09-20 09:44:00,
2013-09-20 05:54:00,69.0,67.0,-100.00,SSW,202,2.0,-999.0,93,-99.99,,,-99.99,0.000000,,2013-09-20 09:54:00,
2013-09-20 06:00:00,68.0,66.0,-100.00,South,180,2.0,-999.0,92,-99.99,,,-99.99,0.000000,,2013-09-20 10:00:00,
2013-09-20 06:42:00,68.0,66.0,-100.00,South,180,2.0,-999.0,92,-99.99,,,-99.99,0.000000,,2013-09-20 10:42:00,
2013-09-20 06:53:00,68.0,66.0,-100.00,South,180,2.0,-999.0,92,-99.99,,,-99.99,0.000000,,2013-09-20 10:53:00,
2013-09-20 07:00:00,68.0,65.0,-100.00,SSW,202,2.0,-999.0,92,-99.99,,,-99.99,0.000000,,2013-09-20 11:00:00,
2013-09-20 07:42:00,68.0,65.0,-100.00,SSW,202,2.0,-999.0,92,-99.99,,,-99.99,0.000000,,2013-09-20 11:42:00,
2013-09-20 07:52:00,68.0,65.0,-100.00,SSW,202,2.0,-999.0,92,-99.99,,,-99.99,0.000000,,2013-09-20 11:52:00,
2013-09-20 08:00:00,68.0,64.0,-100.00,SW,225,5.0,-999.0,89,-99.99,,,-99.99,6.960000,,2013-09-20 12:00:00,
2013-09-20 08:43:00,68.0,64.0,-100.00,SW,225,5.0,-999.0,89,-99.99,,,-99.99,6.960000,,2013-09-20 12:43:00,
2013-09-20 08:52:00,68.0,64.0,-100.00,SW,225,5.0,-999.0,89,-99.99,,,-99.99,6.960000,,2013-09-20 12:52:00,
2013-09-20 10:00:00,68.0,63.0,-100.00,SW,225,7.0,-999.0,86,-99.99,,,-99.99,76.559998,,2013-09-20 14:00:00,
2013-09-20 10:42:00,68.0,63.0,-100.00,SW,225,7.0,-999.0,86,-99.99,,,-99.99,76.559998,,2013-09-20 14:42:00,
2013-09-20 10:52:00,68.0,63.0,-100.00,SW,225,7.0,-999.0,86,-99.99,,,-99.99,76.559998,,2013-09-20 14:52:00,
2013-09-20 11:00:00,68.0,63.0,-100.00,SW,225,8.0,-999.0,84,-99.99,,,-99.99,136.880005,,2013-09-20 15:00:00,
2013-09-20 11:44:00,68.0,63.0,-100.00,SW,225,8.0,-999.0,84,-99.99,,,-99.99,136.880005,,2013-09-20 15:44:00,
2013-09-20 11:54:00,68.0,63.0,-100.00,SW,225,8.0,-999.0,84,-99.99,,,-99.99,136.880005,,2013-09-20 15:54:00,
2013-09-20 12:00:00,68.0,63.0,-100.00,WSW,247,8.0,-999.0,83,-99.99,,,-99.99,103.239998,,2013-09-20 16:00:00,
2013-09-20 12:43:00,68.0,63.0,-100.00,WSW,247,8.0,-999.0,83,-99.99,,,-99.99,103.239998,,2013-09-20 16:43:00,
2013-09-20 12:53:00,68.0,63.0,-100.00,WSW,247,8.0,-999.0,83,-99.99,,,-99.99,103.239998,,2013-09-20 16:53:00,
2013-09-20 13:00:00,68.0,63.0,-100.00,WSW,247,7.0,-999.0,84,-99.99,,,-99.99,82.360001,,2013-09-20 17:00:00,
2013-09-20 13:43:00,68.0,63.0,-100.00,WSW,247,7.0,-999.0,84,-99.99,,,-99.99,82.360001,,2013-09-20 17:43:00,
2013-09-20 13:53:00,68.0,63.0,-100.00,WSW,247,7.0,-999.0,84,-99.99,,,-99.99,82.360001,,2013-09-20 17:53:00,
2013-09-20 14:00:00,68.0,63.0,-100.00,WSW,247,7.0,-999.0,83,-99.99,,,-99.99,80.040001,,2013-09-20 18:00:00,
2013-09-20 14:42:00,68.0,63.0,-100.00,WSW,247,7.0,-999.0,83,-99.99,,,-99.99,80.040001,,2013-09-20 18:42:00,
2013-09-20 14:52:00,68.0,63.0,-100.00,WSW,247,7.0,-999.0,83,-99.99,,,-99.99,80.040001,,2013-09-20 18:52:00,
2013-09-20 15:00:00,68.0,63.0,-100.00,SW,225,8.0,-999.0,85,-99.99,,,-99.99,92.800003,,2013-09-20 19:00:00,
2013-09-20 15:42:00,68.0,63.0,-100.00,SW,225,8.0,-999.0,85,-99.99,,,-99.99,92.800003,,2013-09-20 19:42:00,
2013-09-20 15:53:00,68.0,63.0,-100.00,SW,225,8.0,-999.0,85,-99.99,,,-99.99,92.800003,,2013-09-20 19:53:00,
2013-09-20 16:00:00,69.0,64.0,-100.00,SW,225,7.0,-999.0,83,-99.99,,,-99.99,156.600006,,2013-09-20 20:00:00,
2013-09-20 16:42:00,69.0,64.0,-100.00,SW,225,7.0,-999.0,83,-99.99,,,-99.99,156.600006,,2013-09-20 20:42:00,
2013-09-20 16:52:00,69.0,64.0,-100.00,SW,225,7.0,-999.0,83,-99.99,,,-99.99,156.600006,,2013-09-20 20:52:00,
2013-09-20 17:00:00,68.0,63.0,-100.00,WSW,247,7.0,-999.0,84,-99.99,,,-99.99,69.599998,,2013-09-20 21:00:00,
2013-09-20 17:45:00,68.0,63.0,-100.00,WSW,247,7.0,-999.0,84,-99.99,,,-99.99,69.599998,,2013-09-20 21:45:00,
2013-09-20 17:55:00,68.0,63.0,-100.00,WSW,247,7.0,-999.0,84,-99.99,,,-99.99,69.599998,,2013-09-20 21:55:00,
2013-09-20 18:00:00,68.0,63.0,-100.00,WSW,247,5.0,-999.0,84,-99.99,,,-99.99,61.480000,,2013-09-20 22:00:00,
2013-09-20 18:44:00,68.0,63.0,-100.00,WSW,247,5.0,-999.0,84,-99.99,,,-99.99,61.480000,,2013-09-20 22:44:00,
2013-09-20 18:53:00,68.0,63.0,-100.00,WSW,247,5.0,-999.0,84,-99.99,,,-99.99,61.480000,,2013-09-20 22:53:00,
2013-09-20 19:00:00,68.0,63.0,-100.00,WSW,247,4.0,-999.0,85,-99.99,,,-99.99,42.919998,,2013-09-20 23:00:00,
2013-09-20 19:42:00,68.0,63.0,-100.00,WSW,247,4.0,-999.0,85,-99.99,,,-99.99,42.919998,,2013-09-20 23:42:00,
2013-09-20 19:53:00,68.0,63.0,-100.00,WSW,247,4.0,-999.0,85,-99.99,,,-99.99,42.919998,,2013-09-20 23:53:00,
2013-09-20 20:00:00,67.0,63.0,-100.00,WSW,247,2.0,-999.0,88,-99.99,,,-99.99,9.280000,,2013-09-21 00:00:00,
2013-09-20 20:42:00,67.0,63.0,-100.00,WSW,247,2.0,-999.0,88,-99.99,,,-99.99,9.280000,,2013-09-21 00:42:00,
2013-09-20 20:52:00,67.0,63.0,-100.00,WSW,247,2.0,-999.0,88,-99.99,,,-99.99,9.280000,,2013-09-21 00:52:00,
2013-09-20 21:00:00,66.0,62.0,-100.00,WSW,247,4.0,-999.0,89,-99.99,,,-99.99,0.000000,,2013-09-21 01:00:00,
2013-09-20 21:42:00,66.0,62.0,-100.00,WSW,247,4.0,-999.0,89,-99.99,,,-99.99,0.000000,,2013-09-21 01:42:00,
2013-09-20 21:52:00,66.0,62.0,-100.00,WSW,247,4.0,-999.0,89,-99.99,,,-99.99,0.000000,,2013-09-21 01:52:00,
2013-09-20 23:00:00,62.0,57.0,-100.00,WNW,292,4.0,-999.0,83,-99.99,,,-99.99,0.000000,,2013-09-21 03:00:00,
2013-09-20 23:44:00,62.0,57.0,-100.00,WNW,292,4.0,-999.0,83,-99.99,,,-99.99,0.000000,,2013-09-21 03:44:00,
2013-09-20 23:55:00,62.0,57.0,-100.00,WNW,292,4.0,-999.0,83,-99.99,,,-99.99,0.000000,,2013-09-21 03:55:00,